createdAt,value
2018-05-19T00:02:05.932Z,16.67
2018-05-19T00:04:33.843Z,14.43
2018-05-19T00:07:01.777Z,15.70
2018-05-19T00:09:29.706Z,17.97
2018-05-19T00:11:57.620Z,17.40
2018-05-19T00:14:25.549Z,15.73
2018-05-19T00:16:53.491Z,17.23
2018-05-19T00:19:21.424Z,18.17
2018-05-19T00:21:49.337Z,17.50
2018-05-19T00:24:17.266Z,18.00
2018-05-19T00:26:45.263Z,17.93
2018-05-19T00:29:13.149Z,16.20
2018-05-19T00:31:41.076Z,17.20
2018-05-19T00:34:08.984Z,16.67
2018-05-19T00:36:36.907Z,15.60
2018-05-19T00:39:05.415Z,14.97
2018-05-19T00:41:33.382Z,15.93
2018-05-19T00:44:01.299Z,16.67
2018-05-19T00:46:29.214Z,15.83
2018-05-19T00:48:57.156Z,14.50
2018-05-19T00:51:25.060Z,15.20
2018-05-19T00:53:53.060Z,14.10
2018-05-19T00:56:20.999Z,15.23
2018-05-19T00:58:48.895Z,13.73
2018-05-19T01:01:16.835Z,15.57
2018-05-19T01:03:44.738Z,14.73
2018-05-19T01:06:12.639Z,14.27
2018-05-19T01:08:40.583Z,15.43
2018-05-19T01:11:08.534Z,15.30
2018-05-19T01:13:36.501Z,17.13
2018-05-19T01:16:04.404Z,14.37
2018-05-19T01:18:32.309Z,16.13
2018-05-19T01:21:00.245Z,15.17
2018-05-19T01:23:28.232Z,14.27
2018-05-19T01:25:56.158Z,13.20
2018-05-19T01:28:24.048Z,16.30
2018-05-19T01:30:51.974Z,15.03
2018-05-19T01:33:19.885Z,13.50
2018-05-19T01:35:47.791Z,14.00
2018-05-19T01:38:15.718Z,14.03
2018-05-19T01:40:43.668Z,13.57
2018-05-19T01:43:11.578Z,13.77
2018-05-19T01:45:39.509Z,14.43
2018-05-19T01:48:07.430Z,15.20
2018-05-19T01:50:35.359Z,14.30
2018-05-19T01:53:03.271Z,14.80
2018-05-19T01:55:31.238Z,13.67
2018-05-19T01:57:59.166Z,15.47
2018-05-19T02:00:27.073Z,13.80
2018-05-19T02:02:54.997Z,15.03
2018-05-19T02:05:22.898Z,15.50
2018-05-19T02:07:50.850Z,15.20
2018-05-19T02:10:18.776Z,16.23
2018-05-19T02:12:46.687Z,16.70
2018-05-19T02:15:14.608Z,17.53
2018-05-19T02:17:42.528Z,17.10
2018-05-19T02:20:10.433Z,18.03
2018-05-19T02:22:38.364Z,17.90
2018-05-19T02:25:06.389Z,18.33
2018-05-19T02:27:34.300Z,17.13
2018-05-19T02:30:02.232Z,17.20
2018-05-19T02:32:30.192Z,17.17
2018-05-19T02:34:58.110Z,18.07
2018-05-19T02:37:26.028Z,18.83
2018-05-19T02:39:53.978Z,18.00
2018-05-19T02:42:22.725Z,20.70
2018-05-19T02:44:50.653Z,18.90
2018-05-19T02:47:18.564Z,19.37
2018-05-19T02:49:46.485Z,19.07
2018-05-19T02:52:14.421Z,18.63
2018-05-19T02:54:42.352Z,19.30
2018-05-19T02:57:10.262Z,18.30
2018-05-19T02:59:38.430Z,19.70
2018-05-19T03:02:06.531Z,20.73
2018-05-19T03:04:34.663Z,19.30
2018-05-19T03:07:02.570Z,21.53
2018-05-19T03:09:36.411Z,20.70
2018-05-19T03:12:04.340Z,20.57
2018-05-19T03:14:33.083Z,19.97
2018-05-19T03:17:00.982Z,20.50
2018-05-19T03:19:28.972Z,19.50
2018-05-19T03:21:57.636Z,20.00
2018-05-19T03:24:25.553Z,21.43
2018-05-19T03:26:53.475Z,20.93
2018-05-19T03:29:21.519Z,22.20
2018-05-19T03:31:49.436Z,22.83
2018-05-19T03:34:17.355Z,23.23
2018-05-19T03:36:45.265Z,24.63
2018-05-19T03:39:13.201Z,22.03
2018-05-19T03:41:41.147Z,22.97
2018-05-19T03:44:09.071Z,23.23
2018-05-19T03:46:36.971Z,24.77
2018-05-19T03:49:04.890Z,23.83
2018-05-19T03:51:32.798Z,23.77
2018-05-19T03:54:00.847Z,24.83
2018-05-19T03:56:28.649Z,26.50
2018-05-19T04:02:09.618Z,25.23
2018-05-19T04:04:37.556Z,25.00
2018-05-19T04:07:05.492Z,26.10
2018-05-19T04:09:33.421Z,24.30
2018-05-19T04:12:01.340Z,25.50
2018-05-19T04:14:29.254Z,25.33
2018-05-19T04:16:57.229Z,25.20
2018-05-19T04:19:25.142Z,25.10
2018-05-19T04:21:53.063Z,25.10
2018-05-19T04:24:20.970Z,24.73
2018-05-19T04:26:48.913Z,26.83
2018-05-19T04:29:16.830Z,24.80
2018-05-19T04:31:44.759Z,28.17
2018-05-19T04:34:12.675Z,28.40
2018-05-19T04:36:40.616Z,29.93
2018-05-19T04:39:08.559Z,28.27
2018-05-19T04:41:36.478Z,27.50
2018-05-19T04:44:04.487Z,30.30
2018-05-19T04:46:32.401Z,28.70
2018-05-19T04:49:00.318Z,28.20
2018-05-19T04:51:28.232Z,29.03
2018-05-19T04:53:56.169Z,28.40
2018-05-19T04:56:24.112Z,29.17
2018-05-19T04:58:52.011Z,27.47
2018-05-19T05:01:19.947Z,28.70
2018-05-19T05:03:47.940Z,26.33
2018-05-19T05:06:15.790Z,26.97
2018-05-19T05:08:43.772Z,26.57
2018-05-19T05:11:11.844Z,26.50
2018-05-19T05:13:39.778Z,24.20
2018-05-19T05:16:07.705Z,20.30
2018-05-19T05:18:35.652Z,18.90
2018-05-19T05:21:03.581Z,18.10
2018-05-19T05:23:31.499Z,14.90
2018-05-19T05:25:59.453Z,13.70
2018-05-19T05:28:27.371Z,11.53
2018-05-19T05:30:55.396Z,13.63
2018-05-19T05:33:23.307Z,12.07
2018-05-19T05:35:51.291Z,11.40
2018-05-19T05:38:19.166Z,11.23
2018-05-19T05:40:47.096Z,10.30
2018-05-19T05:43:15.101Z,9.80
2018-05-19T05:45:42.926Z,9.10
2018-05-19T05:48:10.851Z,7.50
2018-05-19T05:50:38.780Z,9.77
2018-05-19T05:53:06.704Z,6.40
2018-05-19T05:55:34.622Z,5.03
2018-05-19T05:58:02.520Z,3.60
2018-05-19T06:00:30.452Z,4.03
2018-05-19T06:02:58.387Z,4.03
2018-05-19T06:05:26.368Z,3.17
2018-05-19T06:07:54.297Z,3.20
2018-05-19T06:10:22.193Z,3.40
2018-05-19T06:12:50.125Z,2.50
2018-05-19T06:15:18.048Z,2.40
2018-05-19T06:17:45.950Z,2.20
2018-05-19T06:20:13.881Z,3.03
2018-05-19T06:22:41.798Z,2.10
2018-05-19T06:25:09.716Z,2.50
2018-05-19T06:27:37.644Z,2.00
2018-05-19T06:30:05.576Z,2.90
2018-05-19T06:32:33.478Z,2.53
2018-05-19T06:35:01.396Z,2.37
2018-05-19T06:37:29.305Z,1.67
2018-05-19T06:39:57.233Z,2.30
2018-05-19T06:42:25.136Z,2.17
2018-05-19T06:44:53.039Z,2.10
2018-05-19T06:47:20.966Z,2.17
2018-05-19T06:49:48.951Z,2.10
2018-05-19T06:52:16.850Z,2.43
2018-05-19T06:54:44.772Z,2.17
2018-05-19T06:57:12.686Z,2.30
2018-05-19T06:59:40.607Z,2.30
2018-05-19T07:02:08.517Z,2.10
2018-05-19T07:04:36.429Z,2.63
2018-05-19T07:07:04.369Z,2.57
2018-05-19T07:09:32.275Z,1.90
2018-05-19T07:12:00.188Z,2.20
2018-05-19T07:14:28.096Z,2.17
2018-05-19T07:16:56.013Z,2.50
2018-05-19T07:19:23.919Z,2.93
2018-05-19T07:21:51.847Z,2.37
2018-05-19T07:24:19.756Z,2.30
2018-05-19T07:26:47.677Z,2.00
2018-05-19T07:29:15.604Z,2.20
2018-05-19T07:31:43.532Z,2.40
2018-05-19T07:34:11.433Z,2.30
2018-05-19T07:36:39.364Z,1.90
2018-05-19T07:39:07.280Z,2.17
2018-05-19T07:41:35.184Z,1.77
2018-05-19T07:44:03.105Z,1.70
2018-05-19T07:46:31.029Z,1.90
2018-05-19T07:48:58.958Z,2.07
2018-05-19T07:51:26.875Z,2.47
2018-05-19T07:53:54.792Z,1.70
2018-05-19T07:56:22.723Z,2.13
2018-05-19T07:58:50.649Z,1.53
2018-05-19T08:01:18.578Z,1.90
2018-05-19T08:03:46.484Z,1.80
2018-05-19T08:06:14.405Z,1.50
2018-05-19T08:08:42.307Z,1.87
2018-05-19T08:11:10.216Z,1.77
2018-05-19T08:13:38.166Z,1.63
2018-05-19T08:16:06.921Z,1.60
2018-05-19T08:18:34.832Z,1.97
2018-05-19T08:21:02.744Z,1.70
2018-05-19T08:23:30.683Z,1.60
2018-05-19T08:25:58.585Z,1.90
2018-05-19T08:28:26.610Z,1.80
2018-05-19T08:30:54.447Z,1.40
2018-05-19T08:33:22.348Z,1.50
2018-05-19T08:35:50.287Z,2.00
2018-05-19T08:38:18.217Z,1.50
2018-05-19T08:40:46.114Z,1.80
2018-05-19T08:43:14.043Z,1.70
2018-05-19T08:45:41.995Z,2.57
2018-05-19T08:48:09.955Z,2.00
2018-05-19T08:50:37.957Z,1.50
2018-05-19T08:53:05.814Z,1.90
2018-05-19T08:55:33.801Z,1.57
2018-05-19T08:58:01.730Z,1.87
2018-05-19T09:00:29.626Z,7.57
2018-05-19T09:02:57.594Z,1.37
2018-05-19T09:05:25.507Z,1.77
2018-05-19T09:07:53.419Z,2.13
2018-05-19T09:10:21.345Z,1.67
2018-05-19T09:12:49.352Z,1.30
2018-05-19T09:15:17.191Z,1.50
2018-05-19T09:17:45.113Z,1.70
2018-05-19T09:20:13.027Z,1.37
2018-05-19T09:22:41.641Z,1.87
2018-05-19T09:25:09.617Z,1.87
2018-05-19T09:27:37.481Z,1.60
2018-05-19T09:30:05.414Z,1.63
2018-05-19T09:32:33.335Z,1.27
2018-05-19T09:35:01.364Z,1.13
2018-05-19T09:37:29.249Z,2.90
2018-05-19T09:39:57.167Z,1.63
2018-05-19T09:42:25.105Z,1.50
2018-05-19T09:44:53.028Z,1.80
2018-05-19T09:47:20.983Z,1.70
2018-05-19T09:49:48.871Z,1.50
2018-05-19T09:52:16.791Z,1.33
2018-05-19T09:54:44.707Z,1.20
2018-05-19T09:57:12.614Z,1.20
2018-05-19T09:59:40.844Z,1.40
2018-05-19T10:02:09.041Z,1.77
2018-05-19T10:04:36.970Z,1.60
2018-05-19T10:07:04.910Z,1.90
2018-05-19T10:09:32.844Z,1.60
2018-05-19T10:12:00.752Z,2.83
2018-05-19T10:14:28.686Z,1.70
2018-05-19T10:16:56.593Z,1.30
2018-05-19T10:19:24.554Z,1.40
2018-05-19T10:21:52.445Z,1.40
2018-05-19T10:24:20.373Z,1.47
2018-05-19T10:26:49.023Z,1.30
2018-05-19T10:29:16.964Z,1.33
2018-05-19T10:31:44.859Z,1.80
2018-05-19T10:34:12.782Z,1.40
2018-05-19T10:36:40.698Z,1.33
2018-05-19T10:39:08.626Z,1.60
2018-05-19T10:41:42.295Z,1.70
2018-05-19T10:44:10.203Z,1.60
2018-05-19T10:46:38.123Z,1.77
2018-05-19T10:49:06.291Z,1.70
2018-05-19T10:51:34.230Z,1.43
2018-05-19T10:54:02.123Z,1.50
2018-05-19T10:56:30.063Z,1.37
2018-05-19T10:58:57.980Z,1.50
2018-05-19T11:01:26.440Z,2.13
2018-05-19T11:03:54.382Z,1.53
2018-05-19T11:06:22.314Z,1.63
2018-05-19T11:08:50.244Z,1.70
2018-05-19T11:11:18.165Z,1.60
2018-05-19T11:13:46.085Z,1.90
2018-05-19T11:16:14.007Z,1.37
2018-05-19T11:18:42.015Z,1.47
2018-05-19T11:21:09.854Z,1.77
2018-05-19T11:23:37.765Z,1.80
2018-05-19T11:26:05.688Z,1.50
2018-05-19T11:28:33.607Z,1.67
2018-05-19T11:31:01.525Z,1.27
2018-05-19T11:33:29.445Z,1.60
2018-05-19T11:35:57.359Z,1.60
2018-05-19T11:38:25.298Z,1.30
2018-05-19T11:40:53.204Z,1.50
2018-05-19T11:43:21.128Z,3.40
2018-05-19T11:45:49.055Z,1.80
2018-05-19T11:48:16.969Z,1.53
2018-05-19T11:50:44.957Z,1.77
2018-05-19T11:53:12.799Z,1.40
2018-05-19T11:55:40.727Z,1.47
2018-05-19T11:58:08.647Z,2.17
2018-05-19T12:00:36.564Z,1.80
2018-05-19T12:03:04.489Z,1.70
2018-05-19T12:05:32.420Z,1.90
2018-05-19T12:08:00.319Z,1.90
2018-05-19T12:10:28.235Z,1.70
2018-05-19T12:12:56.171Z,2.00
2018-05-19T12:15:24.092Z,1.80
2018-05-19T12:17:52.017Z,1.60
2018-05-19T12:20:19.910Z,1.70
2018-05-19T12:22:47.860Z,1.90
2018-05-19T12:25:15.757Z,2.23
2018-05-19T12:27:43.668Z,1.80
2018-05-19T12:30:11.575Z,2.00
2018-05-19T12:32:39.515Z,1.50
2018-05-19T12:35:07.829Z,1.70
2018-05-19T12:37:35.752Z,2.00
2018-05-19T12:40:03.855Z,1.87
2018-05-19T12:42:31.783Z,1.80
2018-05-19T12:44:59.693Z,1.93
2018-05-19T12:47:27.717Z,2.03
2018-05-19T12:49:55.672Z,2.20
2018-05-19T12:52:23.591Z,2.30
2018-05-19T12:54:51.524Z,2.07
2018-05-19T12:57:19.452Z,1.90
2018-05-19T12:59:47.355Z,1.70
2018-05-19T13:02:15.284Z,2.13
2018-05-19T13:04:43.341Z,1.90
2018-05-19T13:07:12.099Z,1.90
2018-05-19T13:09:40.047Z,1.87
2018-05-19T13:12:07.955Z,1.90
2018-05-19T13:14:35.879Z,1.70
2018-05-19T13:17:03.787Z,2.20
2018-05-19T13:19:31.750Z,2.50
2018-05-19T13:22:00.643Z,1.73
2018-05-19T13:24:28.542Z,2.10
2018-05-19T13:26:56.459Z,1.90
2018-05-19T13:29:24.461Z,2.03
2018-05-19T13:31:52.367Z,1.87
2018-05-19T13:34:20.270Z,1.83
2018-05-19T13:36:48.185Z,1.77
2018-05-19T13:39:16.576Z,1.90
2018-05-19T13:41:44.487Z,3.03
2018-05-19T13:44:12.400Z,2.27
2018-05-19T13:46:40.379Z,2.27
2018-05-19T13:49:08.224Z,2.40
2018-05-19T13:51:36.460Z,2.07
2018-05-19T13:54:04.879Z,2.30
2018-05-19T13:56:33.690Z,2.20
2018-05-19T13:59:01.669Z,2.10
2018-05-19T14:01:29.564Z,2.43
2018-05-19T14:03:57.487Z,2.83
2018-05-19T14:06:25.492Z,2.20
2018-05-19T14:08:53.394Z,2.53
2018-05-19T14:11:21.318Z,1.90
2018-05-19T14:13:49.225Z,1.70
2018-05-19T14:16:17.147Z,2.80
2018-05-19T14:18:45.066Z,2.23
2018-05-19T14:21:13.003Z,2.50
2018-05-19T14:23:40.919Z,2.27
2018-05-19T14:26:08.845Z,1.63
2018-05-19T14:28:36.803Z,1.90
2018-05-19T14:31:04.713Z,2.63
2018-05-19T14:33:32.621Z,2.10
2018-05-19T14:36:00.536Z,2.03
2018-05-19T14:38:28.469Z,2.17
2018-05-19T14:40:56.400Z,2.00
2018-05-19T14:43:24.324Z,2.13
2018-05-19T14:45:52.242Z,2.17
2018-05-19T14:48:20.185Z,2.23
2018-05-19T14:50:48.144Z,2.60
2018-05-19T14:53:16.100Z,2.80
2018-05-19T14:55:43.990Z,2.57
2018-05-19T14:58:11.916Z,2.40
2018-05-19T15:00:39.824Z,2.10
2018-05-19T15:03:07.739Z,1.97
2018-05-19T15:05:35.663Z,2.23
2018-05-19T15:08:03.579Z,2.50
2018-05-19T15:10:31.516Z,2.30
2018-05-19T15:12:59.447Z,2.07
2018-05-19T15:15:27.355Z,2.17
2018-05-19T15:17:55.285Z,1.83
2018-05-19T15:20:23.199Z,1.90
2018-05-19T15:22:52.087Z,2.00
2018-05-19T15:25:19.987Z,2.50
2018-05-19T15:27:47.908Z,2.60
2018-05-19T15:30:15.857Z,1.90
2018-05-19T15:32:43.767Z,2.20
2018-05-19T15:35:11.719Z,2.10
2018-05-19T15:37:39.620Z,2.50
2018-05-19T15:40:07.565Z,2.03
2018-05-19T15:42:35.488Z,1.70
2018-05-19T15:45:03.424Z,1.90
2018-05-19T15:47:31.380Z,2.03
2018-05-19T15:49:59.301Z,1.87
2018-05-19T15:52:27.216Z,2.17
2018-05-19T15:54:55.173Z,1.77
2018-05-19T15:57:23.381Z,2.10
2018-05-19T15:59:51.315Z,1.93
2018-05-19T16:02:20.032Z,2.10
2018-05-19T16:04:47.981Z,2.00
2018-05-19T16:07:15.888Z,1.90
2018-05-19T16:09:43.814Z,2.40
2018-05-19T16:12:11.726Z,1.93
2018-05-19T16:14:39.641Z,2.20
2018-05-19T16:17:07.552Z,2.30
2018-05-19T16:19:35.476Z,2.30
2018-05-19T16:22:03.383Z,2.70
2018-05-19T16:24:31.289Z,2.57
2018-05-19T16:26:59.223Z,2.43
2018-05-19T16:29:27.136Z,2.30
2018-05-19T16:31:55.232Z,2.67
2018-05-19T16:34:23.140Z,2.07
2018-05-19T16:36:51.053Z,2.13
2018-05-19T16:39:18.965Z,2.97
2018-05-19T16:41:46.879Z,2.73
2018-05-19T16:44:14.793Z,2.47
2018-05-19T16:46:42.818Z,3.73
2018-05-19T16:49:10.742Z,2.93
2018-05-19T16:51:38.652Z,2.87
2018-05-19T16:54:06.579Z,3.23
2018-05-19T16:56:34.556Z,3.43
2018-05-19T16:59:02.480Z,3.07
2018-05-19T17:01:30.399Z,3.10
2018-05-19T17:03:58.314Z,3.93
2018-05-19T17:06:26.223Z,3.27
2018-05-19T17:08:54.145Z,3.03
2018-05-19T17:11:22.078Z,3.90
2018-05-19T17:13:50.301Z,3.80
2018-05-19T17:16:18.192Z,3.57
2018-05-19T17:18:46.126Z,3.00
2018-05-19T17:21:14.067Z,3.60
2018-05-19T17:23:43.007Z,4.60
2018-05-19T17:26:10.964Z,3.20
2018-05-19T17:28:38.828Z,2.73
2018-05-19T17:31:06.736Z,3.10
2018-05-19T17:33:34.652Z,3.07
2018-05-19T17:36:02.593Z,2.77
2018-05-19T17:38:30.503Z,2.70
2018-05-19T17:40:58.402Z,3.10
2018-05-19T17:43:26.311Z,2.67
2018-05-19T17:45:54.239Z,2.23
2018-05-19T17:48:22.155Z,2.00
2018-05-19T17:50:50.067Z,1.90
2018-05-19T17:53:17.982Z,2.03
2018-05-19T17:55:45.876Z,3.20
2018-05-19T17:58:13.792Z,2.47
2018-05-19T18:00:41.713Z,2.90
2018-05-19T18:03:09.601Z,2.37
2018-05-19T18:05:37.504Z,2.20
2018-05-19T18:08:05.504Z,2.00
2018-05-19T18:10:33.362Z,2.93
2018-05-19T18:13:01.271Z,2.73
2018-05-19T18:15:29.197Z,2.57
2018-05-19T18:17:57.199Z,2.60
2018-05-19T18:20:25.119Z,2.80
2018-05-19T18:22:53.067Z,2.40
2018-05-19T18:25:20.987Z,2.40
2018-05-19T18:27:48.896Z,2.57
2018-05-19T18:30:16.847Z,3.70
2018-05-19T18:32:44.787Z,4.40
2018-05-19T18:35:12.706Z,3.13
2018-05-19T18:37:40.628Z,4.90
2018-05-19T18:40:08.638Z,4.27
2018-05-19T18:42:36.522Z,4.90
2018-05-19T18:45:04.439Z,3.40
2018-05-19T18:47:32.345Z,2.37
2018-05-19T18:50:00.568Z,3.40
2018-05-19T18:52:28.467Z,2.20
2018-05-19T18:54:57.350Z,2.87
2018-05-19T18:57:25.479Z,2.63
2018-05-19T18:59:53.485Z,2.50
2018-05-19T19:02:21.631Z,3.30
2018-05-19T19:04:49.544Z,3.53
2018-05-19T19:07:17.440Z,3.90
2018-05-19T19:09:45.376Z,4.60
2018-05-19T19:12:13.310Z,4.43
2018-05-19T19:14:41.228Z,4.93
2018-05-19T19:17:09.572Z,4.77
2018-05-19T19:19:37.621Z,3.43
2018-05-19T19:22:05.537Z,3.10
2018-05-19T19:24:33.444Z,3.03
2018-05-19T19:27:01.351Z,2.90
2018-05-19T19:29:29.260Z,2.63
2018-05-19T19:31:57.198Z,2.27
2018-05-19T19:34:25.103Z,5.27
2018-05-19T19:36:53.020Z,3.77
2018-05-19T19:39:20.935Z,3.57
2018-05-19T19:41:48.877Z,5.90
2018-05-19T19:44:16.771Z,5.90
2018-05-19T19:46:44.692Z,4.83
2018-05-19T19:49:12.599Z,5.20
2018-05-19T19:51:40.537Z,4.30
2018-05-19T19:54:08.458Z,4.53
2018-05-19T19:56:36.397Z,3.30
2018-05-19T19:59:04.330Z,3.80
2018-05-19T20:01:32.260Z,2.97
2018-05-19T20:04:00.173Z,3.17
2018-05-19T20:06:28.079Z,2.50
2018-05-19T20:08:55.995Z,3.13
2018-05-19T20:11:23.930Z,2.63
2018-05-19T20:13:51.852Z,2.30
2018-05-19T20:16:19.803Z,2.93
2018-05-19T20:18:47.707Z,3.10
2018-05-19T20:21:15.632Z,2.83
2018-05-19T20:23:43.562Z,2.00
2018-05-19T20:26:11.501Z,2.60
2018-05-19T20:28:39.407Z,2.77
2018-05-19T20:31:07.315Z,2.33
2018-05-19T20:33:35.244Z,2.50
2018-05-19T20:36:03.140Z,2.33
2018-05-19T20:38:31.168Z,2.40
2018-05-19T20:40:59.075Z,2.50
2018-05-19T20:43:27.011Z,2.80
2018-05-19T20:45:54.905Z,2.50
2018-05-19T20:48:22.839Z,2.03
2018-05-19T20:50:50.740Z,2.90
2018-05-19T20:53:18.659Z,2.40
2018-05-19T20:55:46.583Z,2.97
2018-05-19T20:58:14.527Z,2.33
2018-05-19T21:00:42.497Z,3.33
2018-05-19T21:03:10.385Z,2.70
2018-05-19T21:05:38.316Z,2.80
2018-05-19T21:08:06.255Z,2.50
2018-05-19T21:10:34.176Z,2.70
2018-05-19T21:13:02.088Z,3.10
2018-05-19T21:15:30.031Z,3.40
2018-05-19T21:17:57.931Z,2.63
2018-05-19T21:20:25.876Z,2.70
2018-05-19T21:22:53.798Z,3.23
2018-05-19T21:25:21.704Z,3.20
2018-05-19T21:27:49.636Z,3.07
2018-05-19T21:30:17.590Z,2.77
2018-05-19T21:32:45.502Z,2.90
2018-05-19T21:35:13.470Z,3.30
2018-05-19T21:37:41.392Z,4.17
2018-05-19T21:40:09.305Z,4.87
2018-05-19T21:42:37.227Z,4.80
2018-05-19T21:45:05.163Z,5.03
2018-05-19T21:47:33.276Z,4.20
2018-05-19T21:50:01.241Z,3.90
2018-05-19T21:52:29.131Z,3.83
2018-05-19T21:54:57.085Z,4.30
2018-05-19T21:57:25.110Z,3.60
2018-05-19T21:59:53.035Z,2.97
2018-05-19T22:02:20.962Z,2.20
2018-05-19T22:04:48.881Z,2.77
2018-05-19T22:07:16.827Z,2.50
2018-05-19T22:09:44.868Z,2.63
2018-05-19T22:12:12.848Z,2.17
2018-05-19T22:14:40.767Z,2.00
2018-05-19T22:17:08.705Z,2.07
2018-05-19T22:19:36.672Z,1.90
2018-05-19T22:22:04.640Z,2.20
2018-05-19T22:24:32.559Z,1.97
2018-05-19T22:27:00.502Z,1.90
2018-05-19T22:29:28.402Z,1.50
2018-05-19T22:31:56.463Z,1.63
2018-05-19T22:34:24.401Z,1.53
2018-05-19T22:36:52.287Z,2.17
2018-05-19T22:39:20.195Z,1.97
2018-05-19T22:41:48.104Z,2.20
2018-05-19T22:44:16.323Z,2.33
2018-05-19T22:46:44.242Z,2.30
2018-05-19T22:49:12.157Z,2.33
2018-05-19T22:51:40.082Z,2.13
2018-05-19T22:54:07.998Z,2.10
2018-05-19T22:56:36.039Z,2.13
2018-05-19T22:59:04.003Z,2.13
2018-05-19T23:01:31.904Z,2.07
2018-05-19T23:03:59.818Z,1.87
2018-05-19T23:06:27.946Z,2.10
2018-05-19T23:08:56.274Z,1.87
2018-05-19T23:11:24.410Z,1.83
2018-05-19T23:13:52.325Z,1.57
2018-05-19T23:16:20.220Z,1.77
2018-05-19T23:18:48.141Z,1.70
2018-05-19T23:21:16.123Z,1.90
2018-05-19T23:23:44.048Z,1.83
2018-05-19T23:26:11.948Z,1.50
2018-05-19T23:28:40.151Z,1.70
2018-05-19T23:31:08.073Z,2.00
2018-05-19T23:33:36.134Z,2.00
2018-05-19T23:36:04.046Z,2.00
2018-05-19T23:38:32.019Z,2.00
2018-05-19T23:41:00.130Z,2.23
2018-05-19T23:43:28.029Z,1.57
2018-05-19T23:45:55.943Z,2.50
2018-05-19T23:48:23.883Z,2.60
2018-05-19T23:50:52.188Z,1.77
2018-05-19T23:53:20.091Z,1.90
2018-05-19T23:55:48.023Z,2.10
2018-05-19T23:58:15.931Z,2.27
